Toledo, OR (97391)

4:58 AM PDT on August 28, 2014 (GMT -0700)
Toledo | Change Station
CLOSE
Current Station
Personal Weather Station
Location: Toledo, OR
Elevation: 148 ft
Nearby Weather Stations

Elev 148 ft 44.61 °N, 123.92 °W | Updated 13 minutes ago

Fog
Fog
57.7 °F
Feels Like 57.7 °F
N
0.0
Wind Variable Wind from WSW
Gusts 0.0 mph

Today
High -- | Low -- °F
--% Chance of Precip.
Yesterday
High -- | Low -- °F
Precip. -- in
6:33 AM 7:59 PM
Waxing Crescent, 8% visible
Pressure 30.14 in
Visibility 0.8 miles
Clouds Overcast 100 ft
Dew Point 56 °F
Humidity 93%
Rainfall 0.00 in
Snow Depth Not available.
UV 0 out of 12
Pollen 3.60 out of 12
Air Quality Not available.
Flu Activity Not available.
METAR KONP 281135Z AUTO 00000KT 3/4SM BR OVC001 11/11 A3014 RMK AO2

More Conditions Fewer Conditions

Pressure 30.14 in
Visibility 0.8 miles
Clouds Overcast 100 ft
Dew Point 56 °F
Humidity 93%
Rainfall 0.00 in
Snow Depth Not available.
UV 0 out of 12
Pollen 3.60 out of 12
Air Quality Not available.
Flu Activity Not available.
METAR KONP 281135Z AUTO 00000KT 3/4SM BR OVC001 11/11 A3014 RMK AO2

More Conditions Fewer Conditions

10-Day Weather Forecast

Almanac

Astronomy

Aug. 28, 2014 Rise Set
Actual Time 6:33 AM PDT 7:59 PM PDT
Civil Twilight 6:03 AM PDT 8:29 PM PDT
Nautical Twilight 5:26 AM PDT 9:06 PM PDT
Astronomical Twilight 4:47 AM PDT 9:45 PM PDT
Moon 9:40 AM PDT 9:16 PM PDT
Length of Visible Light 14h 26m
Length of Day
13h 25m
Tomorrow will be 2m 56s shorter.
Waxing Crescent, 8% of the Moon is Illuminated
Today
Waxing Crescent
Sep 2
First Quarter
Sep 8
Full
Sep 15
Last Quarter
Sep 24
New

Today's Extremes

State Highs State Lows

Community

WunderPhotos

Upload Photos

1,747,929 photos uploaded!

Nearby

Snow Depth

Station Depth Elevation
Seine Creek 0 in 2000 ft
Daly Lake 0 in 3600 ft
Holland Meadows 0 in 4900 ft
Santiam Junction 0 in 3750 ft
Peavine Ridge 3 in 3500 ft

Earthquake Activity

City Distance Mag. Time & Date
Waldport, Oregon 94 miles 2.5 10:59 PM PDT
2014-08-25
Minimum magnitude displayed is 2.5.

Coastal Water Temperatures

Place Temperature
South Beach, OR 50.0 °F
Charleston, OR 51.1 °F

Nearby Weather Stations